Time;durP1;ratioP1;P1;durP2;ratioP2;P2;SDS_P1;SDS_P2;PMS_P1;PMS_P2;Temp;Humidity;BMP_temperature;BMP_pressure;BME280_temperature;BME280_humidity;BME280_pressure;Samples;Min_cycle;Max_cycle;Signal;HPM_P1;HPM_P2
2022/09/23 00:00:49;;;;;;;13.60;9.57;;;;;;;;;;5093955;28;20458;-71
2022/09/23 00:03:16;;;;;;;13.13;10.80;;;;;;;;;;5094338;28;20928;-71
2022/09/23 00:05:43;;;;;;;12.00;10.17;;;;;;;;;;5093616;28;20463;-71
2022/09/23 00:08:12;;;;;;;11.83;10.57;;;;;;;;;;5093154;28;20477;-71
2022/09/23 00:10:40;;;;;;;13.33;10.47;;;;;;;;;;5094023;28;21032;-71
2022/09/23 00:13:09;;;;;;;13.20;9.50;;;;;;;;;;5094296;28;20488;-71
2022/09/23 00:15:40;;;;;;;13.30;10.63;;;;;;;;;;5093442;28;20551;-71
2022/09/23 00:18:07;;;;;;;18.17;10.97;;;;;;;;;;5094015;28;20550;-71
2022/09/23 00:20:35;;;;;;;17.17;10.47;;;;;;;;;;5093788;28;20805;-71
2022/09/23 00:23:02;;;;;;;15.13;11.37;;;;;;;;;;5093866;28;20959;-71
2022/09/23 00:25:29;;;;;;;10.60;9.50;;;;;;;;;;5093445;28;20466;-71
2022/09/23 00:27:57;;;;;;;15.20;12.07;;;;;;;;;;5093793;28;20438;-71
2022/09/23 00:30:26;;;;;;;22.07;14.90;;;;;;;;;;5093766;28;20455;-71
2022/09/23 00:32:53;;;;;;;63.17;19.47;;;;;;;;;;5093581;28;20446;-71
2022/09/23 00:35:20;;;;;;;33.43;24.63;;;;;;;;;;5093556;28;20525;-71
2022/09/23 00:37:47;;;;;;;45.27;30.63;;;;;;;;;;5093516;28;20462;-71
2022/09/23 00:40:14;;;;;;;47.20;35.80;;;;;;;;;;5093597;28;20451;-71
2022/09/23 00:42:46;;;;;;;53.20;40.60;;;;;;;;;;5093326;28;20470;-71
2022/09/23 00:45:13;;;;;;;56.63;45.70;;;;;;;;;;5093419;28;20466;-71
2022/09/23 00:47:46;;;;;;;92.63;63.90;;;;;;;;;;5093161;28;20477;-71
2022/09/23 00:50:15;;;;;;;89.00;64.40;;;;;;;;;;5093365;28;20454;-71
2022/09/23 00:52:42;;;;;;;101.50;72.50;;;;;;;;;;5093386;28;20458;-71
2022/09/23 00:55:11;;;;;;;101.63;71.00;;;;;;;;;;5092925;28;20492;-71
2022/09/23 00:57:39;;;;;;;116.07;72.00;;;;;;;;;;5092977;28;20458;-71
2022/09/23 01:00:07;;;;;;;107.30;76.47;;;;;;;;;;5093448;28;20442;-71
2022/09/23 01:02:36;;;;;;;110.30;76.37;;;;;;;;;;5094151;28;20504;-71
2022/09/23 01:05:05;;;;;;;119.17;76.10;;;;;;;;;;5094624;28;20471;-71
2022/09/23 01:07:33;;;;;;;124.13;84.17;;;;;;;;;;5094142;28;20455;-71
2022/09/23 01:10:01;;;;;;;117.23;81.07;;;;;;;;;;5094188;28;20454;-71
2022/09/23 01:12:34;;;;;;;137.73;87.70;;;;;;;;;;5094381;28;20461;-71
2022/09/23 01:15:07;;;;;;;139.43;91.37;;;;;;;;;;5093920;28;20482;-71
2022/09/23 01:17:38;;;;;;;131.23;86.90;;;;;;;;;;5093911;28;20439;-71
2022/09/23 01:20:31;;;;;;;132.50;92.07;;;;;;;;;;5094405;28;20542;-71
2022/09/23 01:23:06;;;;;;;126.83;94.23;;;;;;;;;;5094042;28;20935;-71
2022/09/23 01:25:51;;;;;;;147.80;99.70;;;;;;;;;;5093679;28;20808;-71
2022/09/23 01:28:28;;;;;;;133.43;97.40;;;;;;;;;;5093726;28;20504;-71
2022/09/23 01:30:58;;;;;;;139.57;99.40;;;;;;;;;;5093809;28;20464;-71
2022/09/23 01:33:31;;;;;;;141.90;97.90;;;;;;;;;;5093995;28;20801;-71
2022/09/23 01:36:06;;;;;;;117.17;81.30;;;;;;;;;;5093746;28;20842;-71
2022/09/23 01:38:36;;;;;;;111.50;78.47;;;;;;;;;;5093505;28;20454;-71
2022/09/23 01:41:07;;;;;;;120.53;76.10;;;;;;;;;;5093712;28;20836;-71
2022/09/23 01:43:37;;;;;;;80.23;57.60;;;;;;;;;;5093730;28;20803;-71
2022/09/23 01:46:09;;;;;;;33.40;24.40;;;;;;;;;;5093964;28;20952;-71
2022/09/23 01:48:39;;;;;;;30.50;21.63;;;;;;;;;;5093532;28;20465;-71
2022/09/23 01:51:08;;;;;;;25.30;19.97;;;;;;;;;;5093626;28;20838;-71
2022/09/23 01:53:38;;;;;;;21.67;15.90;;;;;;;;;;5093711;28;20944;-71
2022/09/23 01:56:07;;;;;;;22.70;17.17;;;;;;;;;;5093199;28;20555;-71
2022/09/23 01:58:38;;;;;;;25.40;18.80;;;;;;;;;;5093252;28;20833;-71
2022/09/23 02:01:07;;;;;;;31.03;20.67;;;;;;;;;;5093063;28;20441;-71
2022/09/23 02:03:37;;;;;;;32.50;22.80;;;;;;;;;;5093154;28;20548;-72
2022/09/23 02:06:07;;;;;;;26.33;19.53;;;;;;;;;;5093002;28;20466;-71
2022/09/23 02:08:36;;;;;;;29.17;20.20;;;;;;;;;;5093198;28;20458;-71
2022/09/23 02:11:04;;;;;;;30.23;21.70;;;;;;;;;;5093168;28;20457;-71
2022/09/23 02:13:34;;;;;;;30.33;21.03;;;;;;;;;;5092981;28;20450;-71
2022/09/23 02:16:04;;;;;;;29.50;22.40;;;;;;;;;;5093401;28;20493;-71
2022/09/23 02:18:36;;;;;;;26.97;19.97;;;;;;;;;;5093267;28;20943;-71
2022/09/23 02:21:06;;;;;;;27.93;21.47;;;;;;;;;;5093453;28;20446;-71
2022/09/23 02:23:38;;;;;;;23.20;17.77;;;;;;;;;;5092921;28;20966;-71
2022/09/23 02:26:07;;;;;;;27.03;17.90;;;;;;;;;;5093242;28;20534;-71
2022/09/23 02:28:36;;;;;;;25.13;17.83;;;;;;;;;;5092912;28;20455;-71
2022/09/23 02:31:07;;;;;;;20.20;14.73;;;;;;;;;;5096009;28;20458;-71
2022/09/23 02:33:36;;;;;;;14.30;11.67;;;;;;;;;;5097226;28;20511;-71
2022/09/23 02:36:07;;;;;;;19.67;13.63;;;;;;;;;;5096971;28;20482;-71
2022/09/23 02:38:38;;;;;;;20.40;14.37;;;;;;;;;;5097267;28;20940;-71
2022/09/23 02:41:08;;;;;;;16.07;12.00;;;;;;;;;;5096965;28;20470;-71
2022/09/23 02:43:38;;;;;;;19.00;12.63;;;;;;;;;;5096772;28;20446;-71
2022/09/23 02:46:06;;;;;;;14.63;11.20;;;;;;;;;;5097187;28;20991;-71
2022/09/23 02:48:34;;;;;;;20.07;13.13;;;;;;;;;;5096803;28;20818;-71
2022/09/23 02:51:03;;;;;;;30.93;17.30;;;;;;;;;;5097116;28;20450;-71
2022/09/23 02:53:33;;;;;;;17.37;13.07;;;;;;;;;;5096800;28;20455;-71
2022/09/23 02:56:00;;;;;;;16.30;13.33;;;;;;;;;;5096703;28;20478;-71
2022/09/23 02:58:27;;;;;;;15.60;11.90;;;;;;;;;;5096729;28;20469;-71
2022/09/23 03:01:00;;;;;;;20.57;12.40;;;;;;;;;;5096557;28;20451;-71
2022/09/23 03:03:36;;;;;;;16.87;12.30;;;;;;;;;;5096532;28;20545;-72
2022/09/23 03:06:07;;;;;;;18.30;12.67;;;;;;;;;;5096653;28;20466;-71
2022/09/23 03:08:41;;;;;;;27.23;16.87;;;;;;;;;;5096723;28;20435;-71
2022/09/23 03:11:09;;;;;;;18.37;13.57;;;;;;;;;;5096821;28;20498;-71
2022/09/23 03:13:43;;;;;;;19.90;12.00;;;;;;;;;;5096567;28;20815;-71
2022/09/23 03:16:13;;;;;;;17.17;12.30;;;;;;;;;;5096693;28;20485;-71
2022/09/23 03:18:42;;;;;;;16.00;12.00;;;;;;;;;;5096273;28;20446;-71
2022/09/23 03:21:12;;;;;;;18.50;12.17;;;;;;;;;;5096585;28;20451;-71
2022/09/23 03:23:41;;;;;;;20.03;13.33;;;;;;;;;;5096183;28;20825;-71
2022/09/23 03:26:10;;;;;;;31.47;18.27;;;;;;;;;;5096342;28;20442;-71
2022/09/23 03:28:39;;;;;;;17.57;11.67;;;;;;;;;;5096095;28;20516;-71
2022/09/23 03:31:07;;;;;;;19.57;12.33;;;;;;;;;;5096080;28;20459;-71
2022/09/23 03:33:35;;;;;;;15.20;11.63;;;;;;;;;;5095899;28;20951;-71
2022/09/23 03:38:52;;;;;;;18.17;12.33;;;;;;;;;;5095953;28;20492;-71
2022/09/23 03:41:23;;;;;;;18.30;11.87;;;;;;;;;;5095613;28;20553;-71
2022/09/23 03:43:52;;;;;;;16.33;12.10;;;;;;;;;;5095620;28;20442;-71
2022/09/23 03:46:19;;;;;;;16.70;11.70;;;;;;;;;;5095869;28;20524;-71
2022/09/23 03:48:46;;;;;;;35.23;15.90;;;;;;;;;;5095820;28;20442;-71
2022/09/23 03:51:20;;;;;;;18.30;13.60;;;;;;;;;;5095786;28;20546;-71
2022/09/23 03:53:48;;;;;;;18.70;13.57;;;;;;;;;;5095864;28;20435;-71
2022/09/23 03:56:16;;;;;;;14.83;12.40;;;;;;;;;;5095487;28;20487;-71
2022/09/23 03:58:45;;;;;;;20.00;13.87;;;;;;;;;;5095659;28;20814;-71
2022/09/23 04:01:13;;;;;;;17.50;13.57;;;;;;;;;;5095309;28;20833;-71
2022/09/23 04:03:41;;;;;;;16.47;13.23;;;;;;;;;;5095409;28;20458;-71
2022/09/23 04:06:08;;;;;;;20.77;14.80;;;;;;;;;;5095750;28;20484;-71
2022/09/23 04:08:35;;;;;;;21.43;15.40;;;;;;;;;;5095485;28;20948;-71
2022/09/23 04:11:03;;;;;;;22.13;16.07;;;;;;;;;;5095617;28;20458;-71
2022/09/23 04:13:32;;;;;;;22.40;14.23;;;;;;;;;;5095053;28;20454;-71
2022/09/23 04:15:59;;;;;;;24.67;16.30;;;;;;;;;;5095023;28;20493;-71
2022/09/23 04:18:26;;;;;;;29.23;18.47;;;;;;;;;;5095115;28;20829;-71
2022/09/23 04:20:57;;;;;;;29.37;18.70;;;;;;;;;;5095124;28;20458;-71
2022/09/23 04:23:24;;;;;;;28.37;19.13;;;;;;;;;;5095306;28;20431;-71
2022/09/23 04:25:51;;;;;;;27.20;18.77;;;;;;;;;;5095312;28;20474;-71
2022/09/23 04:28:18;;;;;;;26.40;17.70;;;;;;;;;;5094913;28;20925;-71
2022/09/23 04:30:47;;;;;;;27.03;18.63;;;;;;;;;;5095225;28;20459;-71
2022/09/23 04:33:15;;;;;;;24.77;16.80;;;;;;;;;;5094872;28;20458;-71
2022/09/23 04:35:42;;;;;;;27.93;19.60;;;;;;;;;;5094703;28;20491;-71
2022/09/23 04:38:11;;;;;;;32.07;20.07;;;;;;;;;;5094994;28;20447;-71
2022/09/23 04:40:38;;;;;;;28.93;20.37;;;;;;;;;;5094704;28;20952;-71
2022/09/23 04:43:05;;;;;;;27.50;19.97;;;;;;;;;;5094780;28;20939;-71
2022/09/23 04:45:32;;;;;;;31.20;20.07;;;;;;;;;;5094726;28;20473;-71
2022/09/23 04:48:00;;;;;;;29.00;20.30;;;;;;;;;;5094720;28;20449;-71
2022/09/23 04:50:28;;;;;;;34.27;20.20;;;;;;;;;;5094502;28;20455;-71
2022/09/23 04:52:55;;;;;;;33.20;21.47;;;;;;;;;;5094084;28;20454;-71
2022/09/23 04:55:23;;;;;;;28.97;19.53;;;;;;;;;;5094189;28;20474;-71
2022/09/23 04:57:50;;;;;;;33.10;20.67;;;;;;;;;;5094286;28;20455;-71
2022/09/23 05:00:18;;;;;;;28.57;19.17;;;;;;;;;;5094078;28;20810;-71
2022/09/23 05:02:46;;;;;;;32.93;19.80;;;;;;;;;;5094421;28;20993;-71
2022/09/23 05:05:20;;;;;;;29.33;19.13;;;;;;;;;;5093999;28;20478;-71
2022/09/23 05:07:47;;;;;;;28.63;19.00;;;;;;;;;;5094222;28;20459;-71
2022/09/23 05:10:14;;;;;;;24.23;18.47;;;;;;;;;;5094069;28;20472;-71
2022/09/23 05:12:41;;;;;;;24.17;18.13;;;;;;;;;;5094273;28;20451;-71
2022/09/23 05:15:08;;;;;;;25.67;17.30;;;;;;;;;;5093919;28;20832;-71
2022/09/23 05:17:36;;;;;;;25.00;17.70;;;;;;;;;;5093788;28;20490;-71
2022/09/23 05:20:03;;;;;;;19.53;15.50;;;;;;;;;;5094102;28;20886;-71
2022/09/23 05:22:31;;;;;;;16.70;12.00;;;;;;;;;;5093895;28;20455;-71
2022/09/23 05:25:00;;;;;;;16.87;11.57;;;;;;;;;;5093695;28;20463;-71
2022/09/23 05:27:27;;;;;;;13.73;10.27;;;;;;;;;;5093840;28;20457;-71
2022/09/23 05:29:54;;;;;;;12.40;9.63;;;;;;;;;;5093963;28;20458;-71
2022/09/23 05:32:22;;;;;;;11.27;8.70;;;;;;;;;;5093705;28;20466;-71
2022/09/23 05:34:49;;;;;;;13.97;8.20;;;;;;;;;;5093676;28;20484;-71
2022/09/23 05:37:16;;;;;;;11.60;8.43;;;;;;;;;;5093812;28;20494;-71
2022/09/23 05:39:44;;;;;;;14.13;9.23;;;;;;;;;;5093571;28;20442;-71
2022/09/23 05:42:12;;;;;;;15.67;11.10;;;;;;;;;;5093701;28;20849;-71
2022/09/23 05:44:39;;;;;;;19.00;12.13;;;;;;;;;;5093356;28;21010;-71
2022/09/23 05:47:06;;;;;;;195.63;22.10;;;;;;;;;;5093748;28;20451;-71
2022/09/23 05:49:35;;;;;;;154.90;19.57;;;;;;;;;;5093385;28;20457;-71
2022/09/23 05:52:02;;;;;;;67.23;16.10;;;;;;;;;;5093567;28;20450;-71
2022/09/23 05:54:29;;;;;;;91.50;13.90;;;;;;;;;;5093006;28;20478;-71
2022/09/23 05:56:57;;;;;;;78.40;14.67;;;;;;;;;;5093632;28;20486;-71
2022/09/23 05:59:25;;;;;;;94.37;16.30;;;;;;;;;;5093097;28;20447;-71
2022/09/23 06:01:52;;;;;;;145.10;19.53;;;;;;;;;;5093213;28;20453;-71
2022/09/23 06:04:19;;;;;;;50.47;13.07;;;;;;;;;;5092067;28;20474;-71
2022/09/23 06:06:46;;;;;;;23.17;11.17;;;;;;;;;;5093083;28;20454;-71
2022/09/23 06:09:14;;;;;;;36.23;12.53;;;;;;;;;;5093194;28;20787;-71
2022/09/23 06:11:41;;;;;;;19.80;11.73;;;;;;;;;;5093333;28;20457;-71
2022/09/23 06:14:12;;;;;;;35.53;12.00;;;;;;;;;;5093126;28;20467;-71
2022/09/23 06:16:39;;;;;;;35.83;9.20;;;;;;;;;;5093040;28;20489;-71
2022/09/23 06:19:07;;;;;;;27.87;10.13;;;;;;;;;;5093100;28;20972;-71
2022/09/23 06:21:34;;;;;;;11.73;9.50;;;;;;;;;;5093110;28;20453;-71
2022/09/23 06:24:02;;;;;;;8.23;7.43;;;;;;;;;;5093158;28;20474;-72
2022/09/23 06:26:32;;;;;;;7.07;6.00;;;;;;;;;;5093032;28;20870;-71
2022/09/23 06:29:01;;;;;;;8.67;7.80;;;;;;;;;;5093498;28;20796;-71
2022/09/23 06:31:29;;;;;;;6.90;6.13;;;;;;;;;;5093014;28;20446;-72
2022/09/23 06:33:56;;;;;;;7.43;6.03;;;;;;;;;;5092930;28;20477;-72
2022/09/23 06:36:24;;;;;;;7.33;6.73;;;;;;;;;;5092816;28;20482;-72
2022/09/23 06:38:51;;;;;;;6.83;6.23;;;;;;;;;;5092907;28;20446;-72
2022/09/23 06:41:19;;;;;;;7.03;6.10;;;;;;;;;;5092992;28;20470;-72
2022/09/23 06:43:46;;;;;;;7.60;6.90;;;;;;;;;;5092632;28;20451;-72
2022/09/23 06:46:15;;;;;;;6.37;5.73;;;;;;;;;;5092901;28;20443;-72
2022/09/23 06:48:44;;;;;;;6.70;6.10;;;;;;;;;;5092775;28;20454;-72
2022/09/23 06:51:17;;;;;;;7.17;6.40;;;;;;;;;;5093125;28;20936;-72
2022/09/23 06:53:45;;;;;;;6.07;5.57;;;;;;;;;;5092848;28;20461;-72
2022/09/23 06:56:12;;;;;;;6.00;5.00;;;;;;;;;;5092898;28;20487;-72
2022/09/23 06:58:39;;;;;;;5.60;5.20;;;;;;;;;;5092563;28;20458;-72
2022/09/23 07:01:08;;;;;;;7.73;7.03;;;;;;;;;;5092721;28;20936;-72
2022/09/23 07:03:35;;;;;;;6.57;5.97;;;;;;;;;;5092409;28;20446;-72
2022/09/23 07:06:04;;;;;;;7.00;6.30;;;;;;;;;;5092512;28;20994;-72
2022/09/23 07:08:32;;;;;;;6.90;6.30;;;;;;;;;;5093346;28;20496;-72
2022/09/23 07:11:00;;;;;;;7.40;6.70;;;;;;;;;;5092811;28;20504;-72
2022/09/23 07:13:28;;;;;;;6.40;5.77;;;;;;;;;;5092268;28;20458;-72
2022/09/23 07:15:57;;;;;;;6.53;5.73;;;;;;;;;;5093457;28;20470;-72
2022/09/23 07:18:24;;;;;;;7.00;6.40;;;;;;;;;;5096237;28;20458;-72
2022/09/23 07:20:52;;;;;;;6.13;5.63;;;;;;;;;;5096716;28;20454;-72
2022/09/23 07:23:20;;;;;;;7.30;6.70;;;;;;;;;;5096346;28;20458;-72
2022/09/23 07:25:49;;;;;;;8.53;7.00;;;;;;;;;;5095872;28;20470;-72
2022/09/23 07:28:17;;;;;;;7.57;6.77;;;;;;;;;;5096123;28;20486;-72
2022/09/23 07:30:44;;;;;;;6.77;6.07;;;;;;;;;;5096210;28;20545;-72
2022/09/23 07:33:11;;;;;;;6.50;5.60;;;;;;;;;;5096023;28;20458;-72
2022/09/23 07:35:40;;;;;;;6.23;5.63;;;;;;;;;;5095697;28;20998;-72
2022/09/23 07:38:07;;;;;;;6.07;5.47;;;;;;;;;;5095882;28;20539;-72
2022/09/23 07:40:35;;;;;;;5.80;5.30;;;;;;;;;;5095823;28;20524;-72
2022/09/23 07:43:03;;;;;;;5.10;4.70;;;;;;;;;;5095849;28;20947;-72
2022/09/23 07:45:32;;;;;;;5.73;5.17;;;;;;;;;;5095411;28;20470;-72
2022/09/23 07:48:00;;;;;;;5.80;5.30;;;;;;;;;;5095697;28;20446;-72
2022/09/23 07:50:27;;;;;;;6.17;5.67;;;;;;;;;;5095740;28;20443;-72
2022/09/23 07:52:54;;;;;;;5.90;5.30;;;;;;;;;;5095907;28;20446;-71
2022/09/23 07:55:21;;;;;;;5.90;5.20;;;;;;;;;;5095458;28;20466;-71
2022/09/23 07:57:49;;;;;;;6.30;5.17;;;;;;;;;;5095540;28;20482;-72
2022/09/23 08:00:17;;;;;;;5.83;5.23;;;;;;;;;;5095063;28;20817;-72
2022/09/23 08:02:44;;;;;;;7.07;6.03;;;;;;;;;;5095495;28;20928;-72
2022/09/23 08:05:11;;;;;;;6.37;5.63;;;;;;;;;;5095306;28;20474;-71
2022/09/23 08:07:38;;;;;;;5.47;4.83;;;;;;;;;;5095240;28;20443;-71
2022/09/23 08:10:06;;;;;;;6.60;4.80;;;;;;;;;;5095459;28;20962;-72
2022/09/23 08:12:33;;;;;;;4.97;4.30;;;;;;;;;;5095444;28;20463;-71
2022/09/23 08:15:03;;;;;;;5.90;5.30;;;;;;;;;;5095034;28;20843;-72
2022/09/23 08:17:30;;;;;;;4.80;4.40;;;;;;;;;;5095016;28;20555;-71
2022/09/23 08:19:57;;;;;;;7.43;4.60;;;;;;;;;;5095391;28;20451;-72
2022/09/23 08:22:24;;;;;;;4.77;4.37;;;;;;;;;;5095013;28;20454;-71
2022/09/23 08:24:51;;;;;;;4.37;3.97;;;;;;;;;;5094728;28;20470;-71
2022/09/23 08:27:18;;;;;;;4.23;3.90;;;;;;;;;;5094097;28;20497;-72
2022/09/23 08:29:46;;;;;;;5.80;3.63;;;;;;;;;;5094917;28;20807;-71
2022/09/23 08:32:15;;;;;;;6.20;4.40;;;;;;;;;;5094827;28;20458;-71
2022/09/23 08:34:42;;;;;;;6.70;4.80;;;;;;;;;;5094459;28;20842;-71
2022/09/23 08:37:10;;;;;;;5.00;4.60;;;;;;;;;;5094699;28;20493;-71
2022/09/23 08:39:37;;;;;;;5.13;3.97;;;;;;;;;;5094604;28;20500;-72
2022/09/23 08:42:13;;;;;;;5.27;4.77;;;;;;;;;;5094667;28;20975;-71
2022/09/23 08:44:44;;;;;;;3.90;3.60;;;;;;;;;;5094378;28;20523;-71
2022/09/23 08:47:16;;;;;;;3.60;3.30;;;;;;;;;;5094631;28;20490;-71
2022/09/23 08:49:48;;;;;;;3.93;3.60;;;;;;;;;;5094601;28;20450;-71
2022/09/23 08:52:21;;;;;;;4.87;3.87;;;;;;;;;;5094481;28;20447;-71
2022/09/23 08:54:48;;;;;;;3.87;3.57;;;;;;;;;;5094213;28;20558;-71
2022/09/23 08:57:21;;;;;;;3.20;2.90;;;;;;;;;;5094237;28;20474;-71
2022/09/23 08:59:49;;;;;;;6.00;3.90;;;;;;;;;;5094316;28;20951;-71
2022/09/23 09:02:19;;;;;;;4.27;3.60;;;;;;;;;;5093936;28;20446;-71
2022/09/23 09:04:47;;;;;;;4.30;3.90;;;;;;;;;;5093929;28;21001;-71
2022/09/23 09:07:16;;;;;;;3.83;3.53;;;;;;;;;;5094471;28;20439;-71
2022/09/23 09:09:45;;;;;;;5.97;3.20;;;;;;;;;;5094374;28;20450;-72
2022/09/23 09:12:16;;;;;;;3.37;3.07;;;;;;;;;;5094192;28;20459;-72
2022/09/23 09:14:48;;;;;;;4.10;3.70;;;;;;;;;;5093982;28;20470;-72
2022/09/23 09:17:19;;;;;;;2.90;2.70;;;;;;;;;;5094075;28;20506;-72
2022/09/23 09:19:58;;;;;;;3.30;3.00;;;;;;;;;;5094244;28;20883;-72
2022/09/23 09:22:49;;;;;;;5.13;3.03;;;;;;;;;;5093827;28;20540;-71
2022/09/23 09:25:19;;;;;;;2.70;2.37;;;;;;;;;;5078516;28;20471;-71
2022/09/23 09:27:48;;;;;;;2.70;2.50;;;;;;;;;;5093880;28;20439;-71
2022/09/23 09:30:15;;;;;;;4.87;3.20;;;;;;;;;;5093757;28;20443;-72
2022/09/23 09:32:47;;;;;;;3.30;3.00;;;;;;;;;;5093895;28;20458;-71
2022/09/23 09:35:21;;;;;;;4.80;3.30;;;;;;;;;;5093460;28;20528;-71
2022/09/23 09:37:48;;;;;;;3.07;2.80;;;;;;;;;;5093553;28;20486;-71
2022/09/23 09:40:16;;;;;;;4.30;2.73;;;;;;;;;;5093555;28;20454;-72
2022/09/23 09:42:46;;;;;;;4.37;3.97;;;;;;;;;;5093513;28;20455;-72
2022/09/23 09:45:18;;;;;;;3.07;2.87;;;;;;;;;;5093185;28;20477;-72
2022/09/23 09:47:47;;;;;;;2.73;2.50;;;;;;;;;;5093480;28;20443;-72
2022/09/23 09:50:19;;;;;;;3.00;2.53;;;;;;;;;;5093439;28;20971;-72
2022/09/23 09:52:48;;;;;;;3.33;2.80;;;;;;;;;;5093476;28;20454;-72
2022/09/23 09:55:18;;;;;;;3.57;3.00;;;;;;;;;;5093114;28;20471;-72
2022/09/23 09:57:51;;;;;;;4.37;3.97;;;;;;;;;;5093404;28;20854;-72
2022/09/23 10:00:34;;;;;;;3.77;3.47;;;;;;;;;;5092834;28;20447;-72
2022/09/23 10:03:03;;;;;;;3.63;3.33;;;;;;;;;;5093649;28;20924;-72
2022/09/23 10:05:32;;;;;;;3.70;3.40;;;;;;;;;;5093033;28;20462;-72
2022/09/23 10:08:15;;;;;;;3.43;3.13;;;;;;;;;;5093609;28;20892;-72
2022/09/23 10:10:53;;;;;;;4.27;3.97;;;;;;;;;;5093177;28;20451;-72
2022/09/23 10:13:22;;;;;;;3.73;3.10;;;;;;;;;;5093337;28;20460;-72
2022/09/23 10:15:53;;;;;;;4.03;3.63;;;;;;;;;;5092801;28;20474;-72
2022/09/23 10:18:21;;;;;;;5.93;3.90;;;;;;;;;;5092941;28;20945;-72
2022/09/23 10:20:49;;;;;;;6.77;3.73;;;;;;;;;;5093388;28;20451;-72
2022/09/23 10:23:20;;;;;;;5.50;3.47;;;;;;;;;;5093062;28;20459;-72
2022/09/23 10:25:56;;;;;;;5.17;3.60;;;;;;;;;;5092890;28;20478;-72
2022/09/23 10:28:45;;;;;;;4.53;4.03;;;;;;;;;;5093242;28;20979;-72
2022/09/23 10:31:13;;;;;;;6.33;4.60;;;;;;;;;;5092990;28;20801;-72
2022/09/23 10:33:41;;;;;;;4.90;4.40;;;;;;;;;;5092722;28;20458;-72
2022/09/23 10:36:09;;;;;;;6.87;4.43;;;;;;;;;;5093063;28;20948;-72
2022/09/23 10:38:38;;;;;;;6.73;4.50;;;;;;;;;;5092958;28;20485;-72
2022/09/23 10:46:52;;;;;;;4.30;3.90;;;;;;;;;;5092846;28;20427;-72
2022/09/23 10:49:31;;;;;;;5.73;3.10;;;;;;;;;;5092969;28;20450;-72
2022/09/23 10:52:05;;;;;;;20.20;3.90;;;;;;;;;;5095894;28;20438;-72
2022/09/23 10:54:41;;;;;;;3.60;3.30;;;;;;;;;;5096593;28;20473;-72
2022/09/23 10:59:59;;;;;;;5.03;3.70;;;;;;;;;;5096387;28;20449;-72
2022/09/23 11:02:38;;;;;;;3.40;3.10;;;;;;;;;;5096512;28;20990;-72
2022/09/23 11:05:14;;;;;;;3.20;2.90;;;;;;;;;;5096603;28;20467;-72
2022/09/23 11:07:44;;;;;;;3.10;2.60;;;;;;;;;;5096601;28;20446;-73
2022/09/23 11:10:24;;;;;;;5.33;2.97;;;;;;;;;;5096561;28;20816;-72
2022/09/23 11:12:55;;;;;;;3.17;2.87;;;;;;;;;;5096434;28;20446;-72
2022/09/23 11:15:26;;;;;;;4.87;2.57;;;;;;;;;;5096031;28;20476;-72
2022/09/23 11:18:11;;;;;;;3.60;2.97;;;;;;;;;;5096269;28;20489;-72
2022/09/23 11:20:43;;;;;;;5.10;3.10;;;;;;;;;;5086344;28;20458;-72
2022/09/23 11:23:27;;;;;;;3.30;2.70;;;;;;;;;;5096276;28;20790;-72
2022/09/23 11:26:00;;;;;;;3.33;3.03;;;;;;;;;;5096241;28;20850;-72
2022/09/23 11:28:46;;;;;;;2.90;2.70;;;;;;;;;;5096306;28;20434;-72
2022/09/23 11:31:20;;;;;;;5.43;2.77;;;;;;;;;;5096209;28;20449;-72
2022/09/23 11:33:57;;;;;;;3.57;2.67;;;;;;;;;;5095836;28;20863;-73
2022/09/23 11:36:27;;;;;;;3.17;2.50;;;;;;;;;;5096262;28;20808;-72
2022/09/23 11:38:55;;;;;;;2.77;2.57;;;;;;;;;;5095773;28;20493;-72
2022/09/23 11:41:26;;;;;;;2.83;2.30;;;;;;;;;;5095735;28;20465;-72
2022/09/23 11:43:57;;;;;;;3.90;3.53;;;;;;;;;;5095798;28;20465;-73
2022/09/23 11:46:30;;;;;;;3.40;2.70;;;;;;;;;;5095923;28;20844;-72
2022/09/23 11:48:59;;;;;;;3.10;2.77;;;;;;;;;;5096168;28;20501;-72
2022/09/23 11:51:30;;;;;;;3.27;2.50;;;;;;;;;;5095599;28;20958;-72
2022/09/23 11:54:00;;;;;;;3.47;2.43;;;;;;;;;;5095424;28;20450;-72
2022/09/23 11:56:31;;;;;;;3.80;2.77;;;;;;;;;;5095759;28;20935;-73
2022/09/23 11:59:02;;;;;;;2.73;2.53;;;;;;;;;;5095431;28;20497;-73
2022/09/23 12:01:32;;;;;;;2.90;2.60;;;;;;;;;;5095114;28;20454;-73
2022/09/23 12:04:03;;;;;;;3.67;2.43;;;;;;;;;;5095371;28;20457;-73
2022/09/23 12:06:35;;;;;;;3.23;2.40;;;;;;;;;;5095556;28;20450;-72
2022/09/23 12:09:04;;;;;;;3.07;2.80;;;;;;;;;;5095599;28;20489;-73
2022/09/23 12:11:37;;;;;;;4.30;2.70;;;;;;;;;;5095319;28;20462;-73
2022/09/23 12:14:10;;;;;;;4.20;3.20;;;;;;;;;;5095109;28;20465;-73
2022/09/23 12:16:49;;;;;;;3.23;2.93;;;;;;;;;;5095275;28;20458;-73
2022/09/23 12:19:21;;;;;;;3.57;3.27;;;;;;;;;;5095128;28;20493;-73
2022/09/23 12:22:00;;;;;;;3.00;2.80;;;;;;;;;;5095140;28;20493;-73
2022/09/23 12:24:42;;;;;;;3.17;2.87;;;;;;;;;;5094801;28;20496;-73
2022/09/23 12:27:12;;;;;;;3.80;2.87;;;;;;;;;;5092907;28;20959;-72
2022/09/23 12:29:40;;;;;;;3.80;3.00;;;;;;;;;;5095027;28;20453;-73
2022/09/23 12:32:08;;;;;;;3.23;2.93;;;;;;;;;;5095079;28;20439;-73
2022/09/23 12:34:40;;;;;;;4.03;3.53;;;;;;;;;;5094779;28;21006;-73
2022/09/23 12:37:07;;;;;;;3.53;3.20;;;;;;;;;;5094941;28;20447;-73
2022/09/23 12:39:36;;;;;;;4.30;3.70;;;;;;;;;;5094662;28;20486;-72
2022/09/23 12:42:04;;;;;;;4.10;3.37;;;;;;;;;;5094725;28;20998;-73
2022/09/23 12:44:35;;;;;;;10.47;6.50;;;;;;;;;;5094424;28;20477;-72
2022/09/23 12:47:24;;;;;;;3.80;3.27;;;;;;;;;;5095010;28;21012;-72
2022/09/23 12:49:52;;;;;;;15.67;4.07;;;;;;;;;;5094506;28;20455;-72
2022/09/23 12:52:25;;;;;;;3.80;3.50;;;;;;;;;;5094789;28;20458;-72
2022/09/23 12:54:53;;;;;;;3.40;3.10;;;;;;;;;;5094287;28;20482;-72
2022/09/23 12:57:35;;;;;;;8.30;3.30;;;;;;;;;;5094417;28;20462;-72
2022/09/23 13:00:21;;;;;;;4.93;4.30;;;;;;;;;;5093620;28;21047;-72
2022/09/23 13:08:31;;;;;;;2.73;2.53;;;;;;;;;;5078064;28;20485;-73
2022/09/23 13:11:00;;;;;;;2.97;2.70;;;;;;;;;;5094185;28;20450;-72
2022/09/23 13:13:30;;;;;;;3.30;2.30;;;;;;;;;;5093612;28;20451;-72
2022/09/23 13:16:10;;;;;;;3.47;2.77;;;;;;;;;;5093603;28;20466;-72
2022/09/23 13:18:57;;;;;;;3.90;2.80;;;;;;;;;;5093921;28;20520;-72
2022/09/23 13:21:43;;;;;;;8.40;2.60;;;;;;;;;;5093965;28;20457;-72
2022/09/23 13:24:21;;;;;;;4.93;2.37;;;;;;;;;;5093911;28;20842;-72
2022/09/23 13:26:50;;;;;;;3.30;2.40;;;;;;;;;;5094061;28;20457;-72
2022/09/23 13:29:19;;;;;;;7.30;2.27;;;;;;;;;;5093808;28;20458;-73
2022/09/23 13:31:48;;;;;;;6.57;3.00;;;;;;;;;;5094008;28;20959;-72
2022/09/23 13:34:16;;;;;;;4.03;3.60;;;;;;;;;;5093520;28;20471;-72
2022/09/23 13:36:44;;;;;;;4.03;3.17;;;;;;;;;;5093668;28;20442;-73
2022/09/23 13:39:15;;;;;;;4.50;2.80;;;;;;;;;;5093526;28;20491;-72
2022/09/23 13:41:43;;;;;;;2.30;2.00;;;;;;;;;;5093563;28;20469;-72
2022/09/23 13:44:15;;;;;;;4.07;3.17;;;;;;;;;;5093366;28;20481;-72
2022/09/23 13:46:44;;;;;;;4.33;3.30;;;;;;;;;;5093720;28;20974;-72
2022/09/23 13:49:20;;;;;;;5.40;4.57;;;;;;;;;;5093650;28;20545;-72
2022/09/23 13:51:47;;;;;;;5.00;3.73;;;;;;;;;;5093501;28;20454;-72
2022/09/23 13:54:27;;;;;;;2.67;2.47;;;;;;;;;;5093317;28;20475;-72
2022/09/23 13:56:55;;;;;;;4.83;4.20;;;;;;;;;;5093496;28;20451;-72
2022/09/23 13:59:25;;;;;;;2.83;2.57;;;;;;;;;;5093216;28;20478;-72
2022/09/23 14:02:02;;;;;;;2.33;2.10;;;;;;;;;;5093414;28;20451;-72
2022/09/23 14:04:31;;;;;;;2.30;2.07;;;;;;;;;;5093055;28;20470;-72
2022/09/23 14:06:58;;;;;;;2.20;2.00;;;;;;;;;;5093257;28;20465;-72
2022/09/23 14:09:27;;;;;;;2.20;2.00;;;;;;;;;;5093112;28;20967;-72
2022/09/23 14:11:55;;;;;;;2.43;2.23;;;;;;;;;;5093234;28;20443;-72
2022/09/23 14:14:22;;;;;;;6.20;2.90;;;;;;;;;;5092983;28;20476;-73
2022/09/23 14:16:50;;;;;;;4.10;3.10;;;;;;;;;;5093145;28;20455;-72
2022/09/23 14:19:18;;;;;;;4.30;2.90;;;;;;;;;;5092986;28;20487;-72
2022/09/23 14:21:49;;;;;;;3.10;2.40;;;;;;;;;;5093206;28;20447;-72
2022/09/23 14:24:17;;;;;;;2.63;2.43;;;;;;;;;;5092932;28;20478;-72
2022/09/23 14:26:46;;;;;;;3.23;2.10;;;;;;;;;;5091992;28;20453;-72
2022/09/23 14:29:14;;;;;;;2.40;2.20;;;;;;;;;;5093037;28;20944;-72
2022/09/23 14:31:42;;;;;;;3.20;2.50;;;;;;;;;;5092876;28;20458;-72
2022/09/23 14:34:24;;;;;;;4.13;2.30;;;;;;;;;;5092784;28;20979;-72
2022/09/23 14:39:34;;;;;;;3.60;2.13;;;;;;;;;;5059023;28;20478;-72
2022/09/23 14:42:05;;;;;;;3.63;2.30;;;;;;;;;;5092777;28;20473;-72
2022/09/23 14:44:34;;;;;;;3.77;2.17;;;;;;;;;;5092483;28;20566;-72
2022/09/23 14:47:01;;;;;;;4.67;2.50;;;;;;;;;;5092895;28;20450;-72
2022/09/23 14:49:29;;;;;;;3.40;2.50;;;;;;;;;;5092709;28;20450;-72
2022/09/23 14:51:59;;;;;;;9.63;2.30;;;;;;;;;;5093038;28;21001;-72
2022/09/23 14:54:33;;;;;;;6.00;2.67;;;;;;;;;;5092738;28;20493;-72
2022/09/23 14:57:00;;;;;;;2.80;2.50;;;;;;;;;;5092777;28;20483;-72
2022/09/23 14:59:29;;;;;;;2.53;2.33;;;;;;;;;;5092531;28;20502;-72
2022/09/23 15:01:56;;;;;;;2.60;2.30;;;;;;;;;;5092730;28;20451;-72
2022/09/23 15:04:31;;;;;;;3.20;2.27;;;;;;;;;;5092515;28;20557;-73
2022/09/23 15:07:01;;;;;;;4.93;3.10;;;;;;;;;;5092992;28;20454;-72